Time;durP1;ratioP1;P1;durP2;ratioP2;P2;SDS_P1;SDS_P2;PMS_P1;PMS_P2;Temp;Humidity;BMP_temperature;BMP_pressure;BME280_temperature;BME280_humidity;BME280_pressure;Samples;Min_cycle;Max_cycle;Signal;HPM_P1;HPM_P2
2020/12/20 00:04:22;;;;;;;17.30;11.77;;;0.90;78.00;;;;;;6213040;23;20520;-70
2020/12/20 00:07:09;;;;;;;17.50;11.65;;;0.80;78.10;;;;;;6213164;23;20154;-70
2020/12/20 00:09:35;;;;;;;16.15;11.68;;;0.80;77.90;;;;;;6212130;23;20171;-70
2020/12/20 00:12:04;;;;;;;19.73;12.45;;;0.80;78.10;;;;;;6212450;23;20173;-70
2020/12/20 00:14:34;;;;;;;15.70;12.25;;;0.80;78.80;;;;;;6212685;23;20170;-70
2020/12/20 00:17:04;;;;;;;21.92;11.65;;;0.70;78.40;;;;;;6213421;23;20174;-70
2020/12/20 00:19:33;;;;;;;14.13;10.13;;;0.70;78.50;;;;;;6210809;23;20187;-69
2020/12/20 00:22:01;;;;;;;15.82;11.10;;;0.70;78.60;;;;;;6208046;23;20186;-70
2020/12/20 00:27:49;;;;;;;12.73;10.25;;;0.70;78.30;;;;;;6214504;23;20188;-70
2020/12/20 00:33:38;;;;;;;12.93;10.63;;;0.60;77.50;;;;;;6213055;23;20510;-70
2020/12/20 00:42:54;;;;;;;14.05;11.05;;;0.50;77.30;;;;;;6213851;23;20569;-69
2020/12/20 00:45:20;;;;;;;14.98;11.73;;;0.50;76.40;;;;;;6215199;23;20159;-70
2020/12/20 00:47:48;;;;;;;12.40;10.88;;;0.50;76.90;;;;;;6215494;23;20162;-70
2020/12/20 00:56:59;;;;;;;18.02;12.48;;;0.30;76.90;;;;;;6216781;23;20308;-70
2020/12/20 00:59:27;;;;;;;15.23;10.57;;;0.30;77.60;;;;;;6237307;23;20189;-70
2020/12/20 01:01:56;;;;;;;15.20;11.02;;;0.40;78.10;;;;;;6244375;23;20150;-70
2020/12/20 01:04:24;;;;;;;14.55;11.13;;;0.40;78.30;;;;;;6233887;23;20236;-70
2020/12/20 01:13:37;;;;;;;14.10;11.05;;;0.50;77.90;;;;;;6239390;23;20545;-70
2020/12/20 01:16:05;;;;;;;13.85;10.98;;;0.60;78.40;;;;;;6244953;23;20181;-69
2020/12/20 01:19:13;;;;;;;12.98;10.40;;;0.60;78.30;;;;;;6242623;23;20190;-69
2020/12/20 01:21:40;;;;;;;14.18;11.13;;;0.70;78.50;;;;;;6245832;23;20154;-70
2020/12/20 01:27:28;;;;;;;12.40;10.15;;;0.80;77.80;;;;;;6246139;23;20213;-69
2020/12/20 01:29:56;;;;;;;12.32;10.30;;;0.70;76.70;;;;;;6239863;23;20150;-70
2020/12/20 01:32:23;;;;;;;13.68;11.43;;;0.70;76.50;;;;;;6246316;23;20161;-69
2020/12/20 01:34:51;;;;;;;15.25;10.63;;;0.60;77.00;;;;;;6246439;23;20146;-70
2020/12/20 01:43:52;;;;;;;17.52;11.23;;;0.40;77.10;;;;;;6246937;23;20146;-70
2020/12/20 01:49:41;;;;;;;18.75;12.23;;;0.30;77.20;;;;;;6245756;23;20629;-70
2020/12/20 01:52:08;;;;;;;15.82;11.25;;;0.20;77.00;;;;;;6246370;23;20200;-69
2020/12/20 01:54:35;;;;;;;19.02;13.77;;;0.20;77.00;;;;;;6245711;23;20173;-69
2020/12/20 01:57:33;;;;;;;18.25;11.50;;;0.10;77.00;;;;;;6245688;23;20186;-69
2020/12/20 02:00:00;;;;;;;19.75;12.65;;;0.10;77.00;;;;;;6246250;23;20185;-69
2020/12/20 02:02:27;;;;;;;15.80;11.82;;;0.10;77.50;;;;;;6246810;23;20153;-69
2020/12/20 02:08:18;;;;;;;13.20;9.68;;;0.10;76.90;;;;;;6245911;23;20169;-69
2020/12/20 02:14:06;;;;;;;12.35;9.88;;;0.10;76.80;;;;;;6245832;23;20176;-69
2020/12/20 02:16:52;;;;;;;11.73;9.38;;;0.00;76.60;;;;;;6246150;23;20158;-69
2020/12/20 02:19:47;;;;;;;12.48;9.07;;;0.00;76.20;;;;;;6245607;23;20595;-69
2020/12/20 02:22:17;;;;;;;11.15;9.25;;;-0.10;75.30;;;;;;6246147;23;20208;-69
2020/12/20 02:24:44;;;;;;;12.73;10.50;;;-0.20;74.90;;;;;;6245720;23;20593;-69
2020/12/20 02:27:11;;;;;;;15.18;11.38;;;-0.30;75.00;;;;;;6244951;23;20172;-69
2020/12/20 02:29:37;;;;;;;13.82;10.55;;;-0.30;74.60;;;;;;6245896;23;20158;-70
2020/12/20 02:32:04;;;;;;;13.70;10.70;;;-0.30;75.00;;;;;;6245561;23;20169;-69
2020/12/20 02:34:31;;;;;;;14.98;11.80;;;-0.30;75.60;;;;;;6245450;23;20606;-69
2020/12/20 02:36:57;;;;;;;13.27;10.45;;;-0.40;75.90;;;;;;6245955;23;20446;-69
2020/12/20 02:39:24;;;;;;;11.43;8.85;;;-0.40;75.60;;;;;;6245549;23;20182;-69
2020/12/20 02:45:13;;;;;;;11.80;9.60;;;-0.40;75.80;;;;;;6245488;23;20188;-69
2020/12/20 02:47:39;;;;;;;10.57;9.45;;;-0.40;75.80;;;;;;6245192;23;20158;-70
2020/12/20 02:50:06;;;;;;;12.73;9.82;;;-0.40;76.00;;;;;;6245890;23;20162;-70
2020/12/20 02:52:38;;;;;;;13.07;10.15;;;-0.40;75.50;;;;;;6245814;23;20157;-69
2020/12/20 02:55:06;;;;;;;13.10;10.23;;;-0.40;75.10;;;;;;6245709;23;20589;-69
2020/12/20 02:57:58;;;;;;;12.38;10.15;;;-0.40;75.00;;;;;;6243651;23;20495;-69
2020/12/20 03:00:25;;;;;;;11.68;10.48;;;-0.40;74.50;;;;;;6215721;23;20197;-69
2020/12/20 03:02:51;;;;;;;9.75;8.25;;;-0.50;74.80;;;;;;6214720;23;20181;-69
2020/12/20 03:08:39;;;;;;;11.38;8.90;;;-0.60;75.30;;;;;;6214232;23;20277;-69
2020/12/20 03:11:07;;;;;;;13.30;9.30;;;-0.60;75.60;;;;;;6215329;23;20150;-69
2020/12/20 03:13:34;;;;;;;11.85;9.40;;;-0.60;75.20;;;;;;6214774;23;20640;-69
2020/12/20 03:16:01;;;;;;;8.63;7.65;;;-0.70;75.20;;;;;;6215300;23;20170;-69
2020/12/20 03:18:27;;;;;;;12.13;8.85;;;-0.70;75.50;;;;;;6214638;23;20220;-70
2020/12/20 03:20:55;;;;;;;10.85;8.98;;;-0.60;75.60;;;;;;6214874;23;20173;-69
2020/12/20 03:23:22;;;;;;;10.60;9.32;;;-0.60;76.00;;;;;;6214949;23;20163;-69
2020/12/20 03:32:46;;;;;;;11.70;9.02;;;-0.60;75.40;;;;;;6215317;23;20188;-69
2020/12/20 03:35:13;;;;;;;11.75;8.70;;;-0.50;74.50;;;;;;6214557;23;20629;-69
2020/12/20 03:38:16;;;;;;;12.00;9.05;;;-0.60;73.80;;;;;;6215221;23;20151;-69
2020/12/20 03:40:42;;;;;;;11.38;9.25;;;-0.60;73.90;;;;;;6214767;23;20170;-69
2020/12/20 03:43:09;;;;;;;10.80;9.38;;;-0.60;73.70;;;;;;6214725;23;20158;-69
2020/12/20 03:45:36;;;;;;;12.57;9.20;;;-0.60;73.60;;;;;;6214943;23;20167;-69
2020/12/20 03:48:03;;;;;;;11.85;8.65;;;-0.70;73.00;;;;;;6215129;23;20209;-69
2020/12/20 03:50:32;;;;;;;12.45;8.55;;;-0.70;72.80;;;;;;6214661;23;20479;-69
2020/12/20 03:53:33;;;;;;;10.23;8.75;;;-0.80;73.20;;;;;;6215239;23;20229;-69
2020/12/20 03:56:00;;;;;;;10.13;7.85;;;-0.70;73.20;;;;;;6215111;23;20586;-69
2020/12/20 03:58:51;;;;;;;11.30;9.77;;;-0.80;72.80;;;;;;6223008;23;20185;-69
2020/12/20 04:01:18;;;;;;;11.40;9.48;;;-0.90;73.20;;;;;;6245626;23;20146;-70
2020/12/20 04:03:45;;;;;;;17.23;10.50;;;-1.00;73.70;;;;;;6245265;23;20157;-70
2020/12/20 04:06:12;;;;;;;11.65;9.70;;;-1.00;73.60;;;;;;6245471;23;20204;-69
2020/12/20 04:08:46;;;;;;;14.05;10.32;;;-0.90;73.30;;;;;;6245654;23;20157;-70
2020/12/20 04:11:12;;;;;;;13.00;9.65;;;-0.90;74.00;;;;;;6245745;23;20154;-69
2020/12/20 04:13:39;;;;;;;14.85;9.15;;;-0.90;74.40;;;;;;6245581;23;20161;-70
2020/12/20 04:16:06;;;;;;;12.55;10.30;;;-0.90;74.70;;;;;;6245541;23;20166;-69
2020/12/20 04:18:33;;;;;;;12.43;9.82;;;-0.90;74.60;;;;;;6245050;23;20158;-69
2020/12/20 04:21:01;;;;;;;10.13;8.85;;;-0.90;74.10;;;;;;6247576;23;20189;-69
2020/12/20 04:23:27;;;;;;;14.02;10.15;;;-0.90;75.20;;;;;;6247374;23;20193;-69
2020/12/20 04:25:56;;;;;;;10.32;8.27;;;-0.80;74.90;;;;;;6247272;23;20249;-70
2020/12/20 04:28:22;;;;;;;10.07;8.52;;;-0.80;74.90;;;;;;6247102;23;20252;-69
2020/12/20 04:30:51;;;;;;;13.45;9.90;;;-0.80;74.10;;;;;;6247540;23;20166;-69
2020/12/20 04:33:48;;;;;;;13.60;10.75;;;-0.80;74.00;;;;;;6248025;23;20150;-69
2020/12/20 04:39:37;;;;;;;13.10;9.88;;;-0.90;73.50;;;;;;6246976;23;20177;-69
2020/12/20 04:42:04;;;;;;;12.60;9.80;;;-0.90;73.20;;;;;;6247474;23;20146;-70
2020/12/20 04:44:31;;;;;;;12.48;10.48;;;-0.90;73.20;;;;;;6247345;23;20146;-69
2020/12/20 04:47:53;;;;;;;11.32;9.52;;;-0.90;72.90;;;;;;6247388;23;20150;-69
2020/12/20 04:50:21;;;;;;;12.02;10.73;;;-0.90;72.30;;;;;;6247706;23;20495;-69
2020/12/20 04:52:50;;;;;;;14.13;11.00;;;-0.90;72.90;;;;;;6247977;23;20146;-69
2020/12/20 05:02:16;;;;;;;13.00;10.60;;;-1.00;72.20;;;;;;6247389;23;20169;-69
2020/12/20 05:04:43;;;;;;;10.43;9.10;;;-1.00;71.80;;;;;;6247518;23;20146;-69
2020/12/20 05:07:10;;;;;;;12.25;9.65;;;-1.00;71.50;;;;;;6247273;23;20589;-69
2020/12/20 05:16:35;;;;;;;11.05;9.00;;;-1.10;72.10;;;;;;6247293;23;20260;-69
2020/12/20 05:19:04;;;;;;;10.30;9.20;;;-1.10;72.10;;;;;;6247062;23;20174;-69
2020/12/20 05:22:07;;;;;;;13.73;10.43;;;-1.10;72.20;;;;;;6247065;23;20146;-69
2020/12/20 05:24:34;;;;;;;15.60;11.50;;;-1.20;71.90;;;;;;6246674;23;20215;-69
2020/12/20 05:27:28;;;;;;;12.63;10.77;;;-1.20;71.20;;;;;;6246958;23;20173;-69
2020/12/20 05:29:55;;;;;;;12.07;9.18;;;-1.20;71.60;;;;;;6246782;23;20470;-69
2020/12/20 05:32:29;;;;;;;13.00;11.18;;;-1.20;71.60;;;;;;6246477;23;20166;-69
2020/12/20 05:35:05;;;;;;;11.95;9.07;;;-1.30;71.20;;;;;;6246838;23;20172;-69
2020/12/20 05:37:33;;;;;;;10.60;8.45;;;-1.30;71.50;;;;;;6247297;23;20458;-69
2020/12/20 05:43:26;;;;;;;11.77;9.60;;;-1.40;72.20;;;;;;6246112;23;20153;-69
2020/12/20 05:49:24;;;;;;;10.93;8.98;;;-1.40;72.70;;;;;;6246474;23;20233;-70
2020/12/20 05:52:34;;;;;;;13.43;10.40;;;-1.30;73.50;;;;;;6247278;23;20200;-69
2020/12/20 05:55:01;;;;;;;10.80;8.98;;;-1.30;72.90;;;;;;6246450;23;20198;-69
2020/12/20 05:58:09;;;;;;;12.07;10.38;;;-1.30;72.50;;;;;;6247179;23;20272;-69
2020/12/20 06:00:36;;;;;;;13.30;9.80;;;-1.30;72.40;;;;;;6247004;23;20231;-69
2020/12/20 06:03:04;;;;;;;13.15;11.75;;;-1.30;72.50;;;;;;6247096;23;20173;-69
2020/12/20 06:05:34;;;;;;;15.90;11.57;;;-1.30;73.10;;;;;;6245973;23;20181;-69
2020/12/20 06:08:08;;;;;;;13.48;10.57;;;-1.30;73.00;;;;;;6247098;23;20177;-69
2020/12/20 06:10:38;;;;;;;13.95;10.57;;;-1.30;73.80;;;;;;6218370;23;20166;-69
2020/12/20 06:13:13;;;;;;;12.10;10.40;;;-1.30;72.60;;;;;;6246648;23;20589;-69
2020/12/20 06:15:42;;;;;;;33.50;21.10;;;-1.30;72.00;;;;;;6246675;23;20164;-68
2020/12/20 06:18:28;;;;;;;54.08;29.77;;;-1.30;71.30;;;;;;6246183;23;20605;-69
2020/12/20 06:20:57;;;;;;;79.88;38.33;;;-1.30;71.50;;;;;;6246767;23;20174;-69
2020/12/20 06:26:51;;;;;;;36.75;21.35;;;-1.40;71.30;;;;;;6245978;23;20183;-69
2020/12/20 06:29:21;;;;;;;23.13;14.65;;;-1.50;71.30;;;;;;6246490;23;20146;-69
2020/12/20 06:31:50;;;;;;;20.55;14.63;;;-1.40;71.60;;;;;;6246086;23;20153;-70
2020/12/20 06:34:29;;;;;;;22.33;14.30;;;-1.50;71.30;;;;;;6246404;23;20150;-69
2020/12/20 06:36:58;;;;;;;26.00;16.63;;;-1.50;71.30;;;;;;6247056;23;20150;-69
2020/12/20 06:39:38;;;;;;;19.85;15.30;;;-1.50;71.20;;;;;;6245817;23;20189;-69
2020/12/20 06:42:05;;;;;;;22.70;15.80;;;-1.40;71.30;;;;;;6246187;23;20161;-69
2020/12/20 06:44:32;;;;;;;16.50;11.93;;;-1.40;71.40;;;;;;6245676;23;20150;-70
2020/12/20 06:46:59;;;;;;;17.65;12.65;;;-1.50;70.50;;;;;;6245782;23;20150;-69
2020/12/20 06:49:40;;;;;;;18.08;13.50;;;-1.60;70.50;;;;;;6246625;23;20188;-69
2020/12/20 06:52:27;;;;;;;17.20;13.32;;;-1.50;71.10;;;;;;6246378;23;20470;-69
2020/12/20 07:01:44;;;;;;;19.63;14.95;;;-1.50;71.50;;;;;;6245343;23;20210;-69
2020/12/20 07:04:47;;;;;;;20.17;15.73;;;-1.50;71.90;;;;;;6245673;23;20165;-69
2020/12/20 07:07:14;;;;;;;20.98;14.82;;;-1.50;71.90;;;;;;6246178;23;20225;-69
2020/12/20 07:09:40;;;;;;;20.83;15.13;;;-1.40;72.00;;;;;;6245576;23;20158;-70
2020/12/20 07:15:52;;;;;;;22.80;17.67;;;-1.40;72.00;;;;;;6246121;23;20532;-69
2020/12/20 07:18:39;;;;;;;27.13;17.60;;;-1.40;71.90;;;;;;6221096;23;20188;-69
2020/12/20 07:21:32;;;;;;;32.42;21.90;;;-1.40;72.20;;;;;;6245879;23;20160;-69
2020/12/20 07:24:04;;;;;;;23.58;16.17;;;-1.30;72.20;;;;;;6245463;23;20150;-69
2020/12/20 07:29:54;;;;;;;20.10;13.10;;;-1.20;70.70;;;;;;6244965;23;20207;-69
2020/12/20 07:32:21;;;;;;;22.33;13.25;;;-1.20;71.50;;;;;;6246056;23;20501;-70
2020/12/20 07:34:48;;;;;;;14.80;11.35;;;-1.10;71.20;;;;;;6245782;23;20157;-69
2020/12/20 07:37:52;;;;;;;12.68;10.85;;;-0.90;71.30;;;;;;6245898;23;20150;-70
2020/12/20 07:40:19;;;;;;;10.63;8.10;;;-0.70;70.40;;;;;;6245677;23;20189;-69
2020/12/20 07:43:01;;;;;;;12.45;9.00;;;-0.60;70.70;;;;;;6246329;23;20150;-69
2020/12/20 07:45:28;;;;;;;11.15;8.68;;;-0.60;71.40;;;;;;6246272;23;20146;-70
2020/12/20 07:47:56;;;;;;;11.90;9.23;;;-0.40;72.40;;;;;;6245874;23;20203;-70
2020/12/20 07:50:23;;;;;;;12.60;8.85;;;-0.30;71.90;;;;;;6245294;23;20752;-70
2020/12/20 07:52:50;;;;;;;11.55;8.63;;;-0.20;71.20;;;;;;6246300;23;20157;-69
2020/12/20 07:55:17;;;;;;;9.95;7.18;;;-0.10;71.50;;;;;;6246614;23;20233;-70
2020/12/20 07:57:47;;;;;;;9.02;7.95;;;0.00;70.90;;;;;;6247932;23;20229;-70
2020/12/20 08:07:16;;;;;;;7.95;6.80;;;0.10;69.80;;;;;;6247325;23;20684;-69
2020/12/20 08:13:05;;;;;;;7.95;6.43;;;0.10;69.00;;;;;;6247285;23;20227;-70
2020/12/20 08:18:55;;;;;;;11.80;8.95;;;0.10;69.60;;;;;;6247721;23;20133;-69
2020/12/20 08:27:48;;;;;;;13.02;10.40;;;0.40;70.30;;;;;;6245989;22;20230;-68
2020/12/20 08:30:30;;;;;;;10.48;9.38;;;0.40;69.90;;;;;;6247274;23;20150;-69
2020/12/20 08:32:57;;;;;;;12.45;9.68;;;0.60;71.00;;;;;;6247061;23;20150;-70
2020/12/20 08:35:37;;;;;;;8.82;7.93;;;0.70;71.20;;;;;;6246736;23;20229;-70
2020/12/20 08:51:04;;;;;;;14.10;11.40;;;1.70;67.60;;;;;;6246843;23;20149;-70
2020/12/20 09:01:06;;;;;;;13.68;11.02;;;2.10;66.30;;;;;;6243201;23;20196;-72
2020/12/20 09:03:37;;;;;;;10.65;9.68;;;2.10;65.90;;;;;;6244999;23;20189;-68
2020/12/20 09:06:17;;;;;;;10.00;8.98;;;2.30;66.20;;;;;;6244475;23;20161;-68
2020/12/20 09:08:44;;;;;;;12.60;9.52;;;2.40;66.00;;;;;;6217537;23;20170;-69
2020/12/20 09:12:06;;;;;;;11.90;9.32;;;2.50;65.80;;;;;;6234847;23;20185;-69
2020/12/20 09:15:06;;;;;;;9.43;7.85;;;2.70;66.00;;;;;;6246123;23;20177;-68
2020/12/20 09:17:34;;;;;;;10.73;8.90;;;3.10;64.70;;;;;;6241658;23;20161;-70
2020/12/20 09:24:25;;;;;;;7.30;6.35;;;3.70;65.80;;;;;;6246290;23;20157;-69
2020/12/20 09:27:00;;;;;;;10.70;8.05;;;4.00;64.40;;;;;;6247000;23;20150;-69
2020/12/20 09:29:29;;;;;;;8.63;7.53;;;4.30;62.40;;;;;;6245446;23;20608;-69
2020/12/20 09:35:17;;;;;;;8.05;6.95;;;4.50;61.00;;;;;;6240647;23;20133;-70
2020/12/20 09:37:43;;;;;;;9.27;7.72;;;4.40;61.70;;;;;;6231622;23;20165;-69
2020/12/20 09:40:10;;;;;;;7.40;6.65;;;4.30;60.80;;;;;;6230214;23;20217;-70
2020/12/20 09:43:02;;;;;;;9.45;7.32;;;4.20;61.00;;;;;;6229201;23;20578;-71
2020/12/20 09:46:32;;;;;;;7.72;5.82;;;4.20;61.20;;;;;;6228673;23;20166;-71
2020/12/20 09:56:17;;;;;;;;;;;;;;;;;;;;;
2020/12/20 10:02:26;;;;;;;12.82;8.02;;;3.30;64.90;;;;;;6213146;23;20231;-69
2020/12/20 10:04:56;;;;;;;10.30;6.88;;;3.20;65.80;;;;;;6239097;23;20166;-69
2020/12/20 10:07:24;;;;;;;24.23;7.80;;;3.10;65.50;;;;;;6235408;23;20170;-70
2020/12/20 10:09:51;;;;;;;11.75;7.50;;;3.10;65.90;;;;;;6232332;23;20162;-69
2020/12/20 10:12:47;;;;;;;13.25;8.25;;;3.00;67.30;;;;;;6231318;23;20173;-68
2020/12/20 10:22:55;;;;;;;14.55;7.63;;;3.00;68.80;;;;;;6124489;23;20639;-72
2020/12/20 10:25:37;;;;;;;11.07;7.40;;;3.00;69.70;;;;;;6152057;23;20646;-68
2020/12/20 10:28:28;;;;;;;10.88;7.78;;;3.00;69.40;;;;;;6239923;23;20161;-68
2020/12/20 10:30:57;;;;;;;11.32;7.72;;;3.00;69.70;;;;;;6221692;23;20461;-69
2020/12/20 10:33:23;;;;;;;12.15;7.28;;;3.00;69.90;;;;;;6243446;23;20177;-68
2020/12/20 10:35:55;;;;;;;10.93;7.72;;;2.90;70.60;;;;;;6231543;23;20169;-69
2020/12/20 10:38:23;;;;;;;13.73;8.38;;;3.00;71.20;;;;;;6225231;23;20534;-70
2020/12/20 10:40:51;;;;;;;11.10;7.93;;;3.00;70.70;;;;;;6231314;23;20192;-68
2020/12/20 10:43:18;;;;;;;14.77;8.90;;;3.10;71.60;;;;;;6226682;23;20169;-70
2020/12/20 10:45:47;;;;;;;12.30;7.25;;;3.10;71.30;;;;;;6230884;23;20219;-69
2020/12/20 10:48:13;;;;;;;11.55;8.98;;;3.10;70.90;;;;;;6225535;23;20263;-69
2020/12/20 10:50:43;;;;;;;16.55;10.73;;;3.10;71.20;;;;;;6245503;23;20162;-69
2020/12/20 10:53:51;;;;;;;14.35;9.82;;;3.20;71.40;;;;;;6244901;23;20154;-70
2020/12/20 10:56:19;;;;;;;24.30;10.05;;;3.20;71.70;;;;;;6227008;23;20168;-70
2020/12/20 10:58:47;;;;;;;13.38;9.13;;;3.20;72.10;;;;;;6232440;23;20232;-69
2020/12/20 11:01:17;;;;;;;16.20;9.68;;;3.30;72.10;;;;;;6233198;23;20190;-70
2020/12/20 11:03:45;;;;;;;17.70;11.48;;;3.40;71.90;;;;;;6230731;23;20185;-68
2020/12/20 11:06:19;;;;;;;15.25;10.18;;;3.40;71.00;;;;;;6229986;23;20161;-70
2020/12/20 11:08:47;;;;;;;14.55;10.07;;;3.40;71.10;;;;;;6229881;23;20185;-69
2020/12/20 11:11:14;;;;;;;13.15;9.85;;;3.40;71.50;;;;;;6227795;23;20617;-70
2020/12/20 11:13:42;;;;;;;15.85;10.50;;;3.50;72.10;;;;;;6226741;23;20174;-70
2020/12/20 11:16:19;;;;;;;12.00;9.52;;;3.60;71.10;;;;;;6233252;23;20166;-70
2020/12/20 11:18:46;;;;;;;11.30;8.70;;;3.60;71.40;;;;;;6204910;23;20162;-69
2020/12/20 11:21:18;;;;;;;13.70;8.35;;;3.70;71.80;;;;;;6227430;23;20247;-70
2020/12/20 11:23:46;;;;;;;13.32;8.68;;;3.80;71.40;;;;;;6230091;23;20509;-68
2020/12/20 11:26:14;;;;;;;16.83;10.73;;;3.80;71.30;;;;;;6228474;23;20174;-70
2020/12/20 11:28:43;;;;;;;19.10;9.05;;;3.80;71.00;;;;;;6229721;23;20176;-69
2020/12/20 11:31:11;;;;;;;14.05;10.07;;;3.90;71.80;;;;;;6230425;23;20170;-70
2020/12/20 11:33:37;;;;;;;17.35;10.60;;;3.90;71.60;;;;;;6227937;23;21158;-69
2020/12/20 11:36:04;;;;;;;13.27;10.02;;;3.90;71.60;;;;;;6231569;23;20470;-68
2020/12/20 11:38:31;;;;;;;13.90;8.80;;;3.90;71.90;;;;;;6225011;23;20248;-68
2020/12/20 11:40:58;;;;;;;13.23;9.10;;;3.90;71.90;;;;;;6231686;23;20186;-69
2020/12/20 11:43:24;;;;;;;11.02;9.25;;;3.90;72.20;;;;;;6224786;23;20189;-69
2020/12/20 11:45:52;;;;;;;16.50;10.13;;;3.90;71.80;;;;;;6230877;23;20173;-69
2020/12/20 11:48:18;;;;;;;15.10;9.48;;;3.90;71.60;;;;;;6225710;23;20166;-70
2020/12/20 11:50:45;;;;;;;13.30;9.50;;;3.80;71.10;;;;;;6229859;23;20165;-69
2020/12/20 11:53:13;;;;;;;17.02;10.98;;;3.80;72.10;;;;;;6227615;23;20166;-70
2020/12/20 11:55:40;;;;;;;11.32;8.25;;;3.90;72.30;;;;;;6241828;23;20165;-68
2020/12/20 11:58:56;;;;;;;15.95;11.63;;;3.90;72.40;;;;;;6244730;23;20157;-69
2020/12/20 12:01:26;;;;;;;12.30;9.95;;;3.90;72.50;;;;;;6239597;23;20188;-69
2020/12/20 12:03:52;;;;;;;13.38;9.70;;;4.00;72.20;;;;;;6240520;23;20244;-69
2020/12/20 12:06:19;;;;;;;10.70;8.60;;;3.90;72.00;;;;;;6231181;23;20165;-71
2020/12/20 12:08:48;;;;;;;14.45;10.23;;;4.00;72.40;;;;;;6238576;23;20499;-70
2020/12/20 12:11:23;;;;;;;13.80;10.45;;;4.10;72.00;;;;;;6245163;23;20149;-70
2020/12/20 12:13:53;;;;;;;11.93;9.05;;;4.10;72.20;;;;;;6244238;23;20156;-70
2020/12/20 12:16:25;;;;;;;12.63;8.85;;;4.10;72.40;;;;;;6244065;23;20230;-70
2020/12/20 12:22:20;;;;;;;13.43;9.48;;;4.30;73.00;;;;;;6245420;23;20580;-70
2020/12/20 12:24:51;;;;;;;13.88;10.30;;;4.40;72.50;;;;;;6233544;23;20165;-70
2020/12/20 12:27:26;;;;;;;14.18;9.15;;;4.50;71.80;;;;;;6244826;23;20158;-70
2020/12/20 12:30:10;;;;;;;12.65;10.27;;;4.50;71.30;;;;;;6243791;23;20157;-70
2020/12/20 12:32:37;;;;;;;13.52;9.80;;;4.60;71.80;;;;;;6241024;23;20176;-71
2020/12/20 12:35:05;;;;;;;13.32;9.65;;;4.70;71.50;;;;;;6232498;23;20201;-70
2020/12/20 12:37:32;;;;;;;15.23;11.10;;;4.90;72.00;;;;;;6235015;23;20166;-70
2020/12/20 12:39:59;;;;;;;13.38;9.65;;;4.90;71.60;;;;;;6238849;23;20192;-70
2020/12/20 12:42:26;;;;;;;18.90;11.65;;;5.00;70.90;;;;;;6240298;23;20273;-70
2020/12/20 12:44:58;;;;;;;19.33;11.80;;;4.90;70.90;;;;;;6246289;23;20426;-70
2020/12/20 12:47:26;;;;;;;13.55;10.30;;;4.90;70.80;;;;;;6244667;23;20158;-70
2020/12/20 12:50:28;;;;;;;15.07;11.00;;;4.90;69.80;;;;;;6246956;23;20267;-70
2020/12/20 12:52:54;;;;;;;13.38;10.15;;;4.90;70.70;;;;;;6246490;23;20181;-70
2020/12/20 12:58:43;;;;;;;16.80;10.63;;;4.80;70.00;;;;;;6245648;23;20149;-70
2020/12/20 13:04:11;;;;;;;15.65;11.00;;;4.60;71.20;;;;;;6243759;23;20470;-69
2020/12/20 13:06:40;;;;;;;16.40;13.20;;;4.60;71.40;;;;;;6245029;23;20173;-70
2020/12/20 13:09:17;;;;;;;18.92;11.10;;;4.50;70.80;;;;;;6246303;23;20212;-70
2020/12/20 13:11:44;;;;;;;15.85;11.93;;;4.40;71.60;;;;;;6216408;23;20161;-69
2020/12/20 13:14:57;;;;;;;13.98;9.80;;;4.40;72.00;;;;;;6245639;23;20176;-70
2020/12/20 13:17:26;;;;;;;14.55;10.70;;;4.30;72.10;;;;;;6245332;23;20180;-69
2020/12/20 13:23:22;;;;;;;16.50;11.30;;;4.10;73.00;;;;;;6245934;23;20172;-70
2020/12/20 13:25:51;;;;;;;16.42;12.25;;;4.10;73.30;;;;;;6217318;23;20158;-70
2020/12/20 13:28:25;;;;;;;21.15;13.75;;;4.10;73.70;;;;;;6245601;23;20164;-69
2020/12/20 13:30:53;;;;;;;17.17;11.27;;;4.10;73.80;;;;;;6241311;23;20170;-70
2020/12/20 13:36:32;;;;;;;19.48;12.45;;;4.10;74.30;;;;;;6245909;23;20530;-70
2020/12/20 13:39:11;;;;;;;21.08;13.70;;;4.00;74.30;;;;;;6246804;23;20146;-70
2020/12/20 13:41:38;;;;;;;23.85;14.57;;;4.00;74.80;;;;;;6245862;23;20149;-69
2020/12/20 13:44:08;;;;;;;23.65;15.00;;;3.90;74.70;;;;;;6246518;23;20165;-70
2020/12/20 13:47:13;;;;;;;19.45;14.32;;;3.90;74.80;;;;;;6243840;23;20168;-69
2020/12/20 13:49:45;;;;;;;19.88;12.82;;;3.90;75.50;;;;;;6245044;23;20259;-69
2020/12/20 13:55:35;;;;;;;21.85;14.15;;;3.90;75.80;;;;;;6246148;23;20572;-70
2020/12/20 13:58:56;;;;;;;23.92;15.13;;;4.00;76.80;;;;;;6247012;23;20146;-69
2020/12/20 14:01:23;;;;;;;29.50;16.33;;;4.00;76.00;;;;;;6244829;23;20248;-70
2020/12/20 14:04:14;;;;;;;25.92;18.52;;;4.00;75.70;;;;;;6246421;23;20153;-70
2020/12/20 14:06:46;;;;;;;27.92;18.50;;;3.90;76.50;;;;;;6215940;23;20161;-70
2020/12/20 14:13:20;;;;;;;23.13;15.50;;;3.90;77.00;;;;;;6216154;23;20218;-69
2020/12/20 14:15:47;;;;;;;25.33;15.90;;;3.90;76.60;;;;;;6214475;23;20223;-70
2020/12/20 14:24:58;;;;;;;29.48;18.40;;;3.80;77.50;;;;;;6215691;23;20154;-69
2020/12/20 14:31:42;;;;;;;24.73;16.25;;;3.70;77.70;;;;;;6215764;23;20185;-70
2020/12/20 14:34:15;;;;;;;25.63;17.80;;;3.70;78.10;;;;;;6216693;23;20516;-70
2020/12/20 14:40:12;;;;;;;26.40;18.75;;;3.60;78.30;;;;;;6215028;23;20224;-69
2020/12/20 14:42:41;;;;;;;26.83;17.75;;;3.60;78.10;;;;;;6209256;23;20170;-69
2020/12/20 14:48:49;;;;;;;30.58;19.23;;;3.50;78.30;;;;;;6215458;23;20178;-69
2020/12/20 14:51:23;;;;;;;30.40;17.63;;;3.50;78.70;;;;;;6214763;23;20583;-70
2020/12/20 14:53:50;;;;;;;25.65;17.00;;;3.50;78.60;;;;;;6182305;23;20192;-69
2020/12/20 14:56:28;;;;;;;33.67;17.50;;;3.50;79.00;;;;;;6214026;23;20170;-70
2020/12/20 14:58:55;;;;;;;25.52;17.42;;;3.40;78.80;;;;;;6215769;23;20150;-69
2020/12/20 15:01:36;;;;;;;25.60;15.90;;;3.40;79.20;;;;;;6212442;23;20186;-70
2020/12/20 15:04:02;;;;;;;29.58;16.67;;;3.30;79.10;;;;;;6207294;23;20170;-69
2020/12/20 15:06:30;;;;;;;27.25;14.82;;;3.20;79.40;;;;;;6223038;23;20235;-70
2020/12/20 15:08:58;;;;;;;20.98;13.65;;;3.20;79.20;;;;;;6231731;23;20471;-69
2020/12/20 15:11:24;;;;;;;27.20;15.90;;;3.10;80.00;;;;;;6224019;23;20173;-70
2020/12/20 15:13:52;;;;;;;22.42;14.80;;;3.10;80.00;;;;;;6230214;23;20485;-70
2020/12/20 15:16:19;;;;;;;25.75;14.50;;;3.10;80.10;;;;;;6224017;23;20628;-71
2020/12/20 15:18:46;;;;;;;25.00;13.38;;;3.10;80.30;;;;;;6230055;23;20166;-70
2020/12/20 15:21:12;;;;;;;31.95;13.80;;;3.00;80.10;;;;;;6223068;23;20197;-72
2020/12/20 15:23:39;;;;;;;24.42;14.10;;;3.00;80.60;;;;;;6227132;23;20373;-69
2020/12/20 15:26:06;;;;;;;20.58;12.35;;;2.90;80.90;;;;;;6229158;23;20173;-71
2020/12/20 15:28:33;;;;;;;19.70;12.95;;;2.90;81.00;;;;;;6223460;23;20284;-70
2020/12/20 15:31:00;;;;;;;21.88;11.88;;;2.90;81.00;;;;;;6229871;23;20536;-70
2020/12/20 15:33:26;;;;;;;17.25;13.43;;;2.90;81.20;;;;;;6222046;23;20771;-69
2020/12/20 15:35:53;;;;;;;21.35;15.00;;;2.90;81.00;;;;;;6230186;23;20170;-69
2020/12/20 15:38:19;;;;;;;26.08;13.73;;;2.90;80.70;;;;;;6223433;23;20442;-71
2020/12/20 15:40:46;;;;;;;18.60;12.88;;;2.80;80.10;;;;;;6230302;23;20193;-69
2020/12/20 15:43:13;;;;;;;25.02;13.38;;;2.80;81.10;;;;;;6225959;23;20166;-71
2020/12/20 15:45:39;;;;;;;18.80;13.60;;;2.70;81.40;;;;;;6227322;23;20330;-69
2020/12/20 15:48:06;;;;;;;26.95;12.77;;;2.80;81.50;;;;;;6229551;23;20165;-71
2020/12/20 15:50:32;;;;;;;27.23;11.73;;;2.80;81.00;;;;;;6223754;23;20808;-70
2020/12/20 15:52:59;;;;;;;28.63;14.02;;;2.70;80.90;;;;;;6229835;23;20189;-70
2020/12/20 15:55:25;;;;;;;24.75;11.80;;;2.70;81.40;;;;;;6222382;23;20684;-69
2020/12/20 15:57:52;;;;;;;23.83;12.45;;;2.60;81.90;;;;;;6229741;23;20166;-70
2020/12/20 16:00:19;;;;;;;20.88;12.45;;;2.50;82.20;;;;;;6223179;23;20209;-71
2020/12/20 16:02:46;;;;;;;26.50;12.63;;;2.50;83.20;;;;;;6229611;23;20162;-70
2020/12/20 16:05:12;;;;;;;25.40;15.15;;;2.50;83.10;;;;;;6226075;23;20228;-71
2020/12/20 16:07:39;;;;;;;23.70;14.68;;;2.50;83.30;;;;;;6226623;23;20400;-70
2020/12/20 16:10:05;;;;;;;48.28;19.40;;;2.40;83.50;;;;;;6229235;23;20227;-71
2020/12/20 16:12:32;;;;;;;29.48;17.38;;;2.40;83.60;;;;;;6222959;23;20807;-70
2020/12/20 16:14:59;;;;;;;27.23;13.73;;;2.40;83.80;;;;;;6231214;22;20166;-70
2020/12/20 16:17:26;;;;;;;40.25;13.90;;;2.40;83.50;;;;;;6225186;23;20696;-68
2020/12/20 16:19:53;;;;;;;15.77;11.70;;;2.40;84.10;;;;;;6232002;23;20662;-68
2020/12/20 16:22:20;;;;;;;16.73;11.18;;;2.40;83.90;;;;;;6225652;23;20674;-71
2020/12/20 16:24:46;;;;;;;19.77;11.25;;;2.40;83.70;;;;;;6232877;23;20252;-68
2020/12/20 16:27:13;;;;;;;16.67;12.23;;;2.30;83.50;;;;;;6228237;23;20192;-70
2020/12/20 16:29:39;;;;;;;19.05;13.55;;;2.40;83.40;;;;;;6229036;23;20387;-69
2020/12/20 16:32:06;;;;;;;17.13;12.25;;;2.40;83.40;;;;;;6232260;23;20166;-70
2020/12/20 16:34:43;;;;;;;21.15;11.82;;;2.30;83.30;;;;;;6226640;23;20791;-71
2020/12/20 16:37:15;;;;;;;15.75;11.85;;;2.30;82.80;;;;;;6229507;23;20172;-71